Bonum — CRA5490 — position and weather

sailwx.info

Track history (hours):
 
Tides and Currents Weather Stations Pressure Air Temp Water Temp Dewpoint Dewpoint Depression Visibility Wind Speed Wind Dir Waves Ship Positions

Bonum

Last reported at 2015-Jul-26 23:33 UTC. Time now 2015-Jul-31 05:03 UTC.
Position N 37°06' E 027°17'.

Length 38 m; draft 3.2 m.

MMSI: 255910770.

Date/timePositionNaut miles runAvg speedWind from/ knotsBaromVisibWave heightAir tempDewpointWater temp
2015-Jul-26 23:33N 37°06' E 027°17'0 0.0
2015-Jul-26 22:33N 37°06' E 027°17'5 0.9
2015-Jul-26 17:33N 37°10' E 027°21'5 0.6
2015-Jul-26 09:20N 37°07' E 027°17'0 0.3
2015-Jul-26 08:33N 37°06' E 027°17'0 0.0
2015-Jul-26 07:32N 37°06' E 027°17'0 0.0
2015-Jul-26 06:33N 37°06' E 027°17'0 0.0
2015-Jul-26 05:32N 37°06' E 027°17'0 0.0
2015-Jul-26 03:30N 37°06' E 027°17'0 0.0
2015-Jul-26 02:33N 37°06' E 027°17'0 0.0
2015-Jul-26 00:33N 37°06' E 027°17'0 0.0
2015-Jul-25 23:32N 37°06' E 027°17'0 0.0
2015-Jul-25 22:30N 37°06' E 027°17'0 0.0
2015-Jul-25 21:32N 37°06' E 027°17'0 0.0
2015-Jul-25 20:32N 37°06' E 027°17'0 0.0
2015-Jul-25 19:14N 37°06' E 027°17'0 0.0
2015-Jul-25 01:05N 37°06' E 027°17'0 0.0
2015-Jul-25 00:28N 37°06' E 027°17'0 0.0
2015-Jul-24 19:30N 37°06' E 027°17'35 1.3
2015-Jul-23 16:24N 37°13' E 026°33'1410.8
2015-Jul-23 15:06N 37°12' E 026°16'2010.3
2015-Jul-23 13:08N 37°13' E 025°50'610.4
2015-Jul-23 12:33N 37°14' E 025°43'1010.3
2015-Jul-23 11:33N 37°15' E 025°30'10 9.8
2015-Jul-23 10:34N 37°17' E 025°18'1010.2
2015-Jul-23 09:33N 37°19' E 025°05'1010.2
2015-Jul-23 08:34N 37°21' E 024°53'58 2.5
2015-Jul-22 09:33N 37°37' E 023°43'1410.4
2015-Jul-22 08:13N 37°47' E 023°31'710.6
2015-Jul-22 07:33N 37°49' E 023°22'1410.9
2015-Jul-22 06:16N 37°53' E 023°05'  
Track history (hours):
 
Tides and Currents Weather Stations Pressure Air Temp Water Temp Dewpoint Dewpoint Depression Visibility Wind Speed Wind Dir Waves Ship Positions

Bonum

Last reported at 2015-Jul-26 23:33 UTC. Time now 2015-Jul-31 05:03 UTC.
Position N 37°06' E 027°17'.

Length 38 m; draft 3.2 m.

MMSI: 255910770.

Date/timePositionNaut miles runAvg speedWind from/ knotsBaromVisibWave heightAir tempDewpointWater temp
2015-Jul-26 23:33N 37°06' E 027°17'0 0.0
2015-Jul-26 22:33N 37°06' E 027°17'5 0.9
2015-Jul-26 17:33N 37°10' E 027°21'5 0.6
2015-Jul-26 09:20N 37°07' E 027°17'0 0.3
2015-Jul-26 08:33N 37°06' E 027°17'0 0.0
2015-Jul-26 07:32N 37°06' E 027°17'0 0.0
2015-Jul-26 06:33N 37°06' E 027°17'0 0.0
2015-Jul-26 05:32N 37°06' E 027°17'0 0.0
2015-Jul-26 03:30N 37°06' E 027°17'0 0.0
2015-Jul-26 02:33N 37°06' E 027°17'0 0.0
2015-Jul-26 00:33N 37°06' E 027°17'0 0.0
2015-Jul-25 23:32N 37°06' E 027°17'0 0.0
2015-Jul-25 22:30N 37°06' E 027°17'0 0.0
2015-Jul-25 21:32N 37°06' E 027°17'0 0.0
2015-Jul-25 20:32N 37°06' E 027°17'0 0.0
2015-Jul-25 19:14N 37°06' E 027°17'0 0.0
2015-Jul-25 01:05N 37°06' E 027°17'0 0.0
2015-Jul-25 00:28N 37°06' E 027°17'0 0.0
2015-Jul-24 19:30N 37°06' E 027°17'35 1.3
2015-Jul-23 16:24N 37°13' E 026°33'1410.8
2015-Jul-23 15:06N 37°12' E 026°16'2010.3
2015-Jul-23 13:08N 37°13' E 025°50'610.4
2015-Jul-23 12:33N 37°14' E 025°43'1010.3
2015-Jul-23 11:33N 37°15' E 025°30'10 9.8
2015-Jul-23 10:34N 37°17' E 025°18'1010.2
2015-Jul-23 09:33N 37°19' E 025°05'1010.2
2015-Jul-23 08:34N 37°21' E 024°53'58 2.5
2015-Jul-22 09:33N 37°37' E 023°43'1410.4
2015-Jul-22 08:13N 37°47' E 023°31'710.6
2015-Jul-22 07:33N 37°49' E 023°22'1410.9
2015-Jul-22 06:16N 37°53' E 023°05'  

Dump ship's entire track history